Alvarado, Minnesota
Current Conditions -  °F | °C
As of 6:53 PM on Saturday 20 Dec 2014 (Local Time) from KGFK Reporting Station
Haze Haze  
Wind Chill: 19°   Ceiling: 600
Heat Index: 29°   Visibility: 6mi
Dew Point: 27°   Wind: 13mph
Humidity: 92%   Direction: 170°S
Pressure: 29.91"   Gusts: NA
Location:  48.19°N, 97°W
Report Text: KGFK 210053Z 17011KT 6SM BR OVC006 M02/M03 A2991 RMK AO2 SLP141 T10171028 $
Loading
Personal Weather Stations






























Interactive Weather Map New forecast layout! Learn more

10-Day Weather Forecast

Advertisements
Track Severe Weather on mobile